Strona główna
METAR-TAF:

METAR-TAF

Lotnisko :

Port lotniczy Guilin-Liangjiang

Guilin, Chiny

Szerokość geograficzna: 25-20N, Długość geograficzna: 110-18E, wysokość: 166 m

Aktualna obserwacja pogody

Raport powstał 45 minut temu, godzina 17:00 UTC
Cisza
Temperatura 10°C
Wilgotność 82%
Ciśnienie 1022 hPa
Widzialność: 5000 m
Zachmurzenie całkowite na wysokości 5300 ft
zamglenie

METAR: ZGKL 231700Z 00000MPS 5000 BR OVC053 10/07 Q1022 NOSIG

czas: 01:45 (17:45 UTC)

Prognoza

Raport powstał 2 godziny i 42 minut temu, godzina 15:03 UTC
Prognoza ważna od 23 godzina 18 UTC do 24 godzina 18 UTC
Wiatr 2 kt z kierunków zmiennych
Widzialność: 6000 m
Rozproszone chmury na wysokości 4000 ft
Zachmurzenie całkowite na wysokości 5000 ft

TAF: ZGKL 231503Z 2318/2418 VRB01MPS 6000 SCT040 OVC050 TX14/2408Z TN08/2322Z

Obserwacja i prognoza pogody dla ponad 4000 lotnisk (raport METAR i TAF).

Dostępne stacje oznaczono żółtymi i czerwonymi punktami na mapie.

Najedź kursorem aby zobaczyć nazwę stacji.

Kliknij aby zobaczyć obserwacje i prognozy pogody.

Aby zmienić mapę: kliknij na zielony przycisk z czarnym krzyżykiem, aby powiększyć; na zielony przycisk z myślnikiem, aby pomniejszyć; na zielone strzałki, aby przejść do map sąsiednich.


METAR-TAF: